sensor_id;sensor_type;location;lat;lon;timestamp;P1;durP1;ratioP1;P2;durP2;ratioP2
10005;SDS011;5042;42.626;23.382;2024-03-23T00:51:36;6.17;;;5.33;;
10005;SDS011;5042;42.626;23.382;2024-03-23T00:54:03;6.03;;;5.43;;
10005;SDS011;5042;42.626;23.382;2024-03-23T00:56:29;8.07;;;5.40;;
10005;SDS011;5042;42.626;23.382;2024-03-23T00:58:56;6.60;;;5.50;;
10005;SDS011;5042;42.626;23.382;2024-03-23T01:01:22;7.67;;;5.57;;
10005;SDS011;5042;42.626;23.382;2024-03-23T01:03:49;7.17;;;5.37;;
10005;SDS011;5042;42.626;23.382;2024-03-23T01:06:14;7.37;;;5.27;;
10005;SDS011;5042;42.626;23.382;2024-03-23T01:08:43;6.33;;;5.53;;
10005;SDS011;5042;42.626;23.382;2024-03-23T01:11:08;8.37;;;5.40;;
10005;SDS011;5042;42.626;23.382;2024-03-23T01:13:35;7.23;;;5.07;;
10005;SDS011;5042;42.626;23.382;2024-03-23T01:16:01;6.57;;;5.30;;
10005;SDS011;5042;42.626;23.382;2024-03-23T01:18:29;7.47;;;5.50;;
10005;SDS011;5042;42.626;23.382;2024-03-23T01:20:54;7.77;;;5.13;;
10005;SDS011;5042;42.626;23.382;2024-03-23T01:23:21;6.30;;;4.90;;
10005;SDS011;5042;42.626;23.382;2024-03-23T01:25:52;5.90;;;5.00;;
10005;SDS011;5042;42.626;23.382;2024-03-23T01:28:19;5.90;;;5.30;;
10005;SDS011;5042;42.626;23.382;2024-03-23T01:30:45;5.83;;;5.03;;
10005;SDS011;5042;42.626;23.382;2024-03-23T01:33:12;7.47;;;5.43;;
10005;SDS011;5042;42.626;23.382;2024-03-23T01:35:38;6.27;;;5.40;;
10005;SDS011;5042;42.626;23.382;2024-03-23T01:38:05;6.63;;;5.30;;
10005;SDS011;5042;42.626;23.382;2024-03-23T01:40:31;6.87;;;5.80;;
10005;SDS011;5042;42.626;23.382;2024-03-23T01:43:02;8.43;;;5.63;;
10005;SDS011;5042;42.626;23.382;2024-03-23T01:45:29;7.33;;;5.70;;
10005;SDS011;5042;42.626;23.382;2024-03-23T01:47:57;6.77;;;5.30;;
10005;SDS011;5042;42.626;23.382;2024-03-23T01:50:23;7.27;;;5.70;;
10005;SDS011;5042;42.626;23.382;2024-03-23T01:52:50;6.50;;;5.67;;
10005;SDS011;5042;42.626;23.382;2024-03-23T01:55:17;7.67;;;5.60;;
10005;SDS011;5042;42.626;23.382;2024-03-23T01:57:44;7.43;;;6.03;;
10005;SDS011;5042;42.626;23.382;2024-03-23T02:00:12;6.20;;;5.43;;
10005;SDS011;5042;42.626;23.382;2024-03-23T02:02:43;7.70;;;5.43;;
10005;SDS011;5042;42.626;23.382;2024-03-23T02:05:09;6.63;;;5.20;;
10005;SDS011;5042;42.626;23.382;2024-03-23T02:07:37;7.50;;;5.53;;
10005;SDS011;5042;42.626;23.382;2024-03-23T02:10:04;7.60;;;5.40;;
10005;SDS011;5042;42.626;23.382;2024-03-23T02:12:31;6.30;;;5.40;;
10005;SDS011;5042;42.626;23.382;2024-03-23T02:14:57;8.23;;;5.67;;
10005;SDS011;5042;42.626;23.382;2024-03-23T02:17:26;7.57;;;5.50;;
10005;SDS011;5042;42.626;23.382;2024-03-23T02:19:52;6.43;;;5.43;;
10005;SDS011;5042;42.626;23.382;2024-03-23T02:22:18;6.67;;;5.63;;
10005;SDS011;5042;42.626;23.382;2024-03-23T02:24:46;7.70;;;5.97;;
10005;SDS011;5042;42.626;23.382;2024-03-23T02:27:13;8.47;;;6.40;;
10005;SDS011;5042;42.626;23.382;2024-03-23T02:29:39;8.43;;;6.23;;
10005;SDS011;5042;42.626;23.382;2024-03-23T02:32:06;6.63;;;5.93;;
10005;SDS011;5042;42.626;23.382;2024-03-23T02:34:34;7.90;;;5.93;;
10005;SDS011;5042;42.626;23.382;2024-03-23T02:37:01;6.40;;;5.70;;
10005;SDS011;5042;42.626;23.382;2024-03-23T02:39:27;7.13;;;5.47;;
10005;SDS011;5042;42.626;23.382;2024-03-23T02:41:56;6.57;;;5.23;;
10005;SDS011;5042;42.626;23.382;2024-03-23T02:44:22;5.30;;;4.77;;
10005;SDS011;5042;42.626;23.382;2024-03-23T02:46:49;6.47;;;5.10;;
10005;SDS011;5042;42.626;23.382;2024-03-23T02:49:14;5.73;;;4.77;;
10005;SDS011;5042;42.626;23.382;2024-03-23T02:51:41;5.53;;;4.53;;
10005;SDS011;5042;42.626;23.382;2024-03-23T02:54:10;4.27;;;3.87;;
10005;SDS011;5042;42.626;23.382;2024-03-23T02:56:37;4.80;;;4.00;;
10005;SDS011;5042;42.626;23.382;2024-03-23T02:59:04;5.33;;;4.53;;
10005;SDS011;5042;42.626;23.382;2024-03-23T03:01:31;5.33;;;4.20;;
10005;SDS011;5042;42.626;23.382;2024-03-23T03:03:57;6.60;;;4.50;;
10005;SDS011;5042;42.626;23.382;2024-03-23T03:06:24;5.70;;;4.27;;
10005;SDS011;5042;42.626;23.382;2024-03-23T03:08:50;5.73;;;4.60;;
10005;SDS011;5042;42.626;23.382;2024-03-23T03:11:17;5.63;;;4.30;;
10005;SDS011;5042;42.626;23.382;2024-03-23T03:13:43;5.37;;;4.17;;
10005;SDS011;5042;42.626;23.382;2024-03-23T03:16:11;6.17;;;4.40;;
10005;SDS011;5042;42.626;23.382;2024-03-23T03:18:38;5.83;;;4.53;;
10005;SDS011;5042;42.626;23.382;2024-03-23T03:21:05;6.67;;;4.33;;
10005;SDS011;5042;42.626;23.382;2024-03-23T03:23:36;5.60;;;4.63;;
10005;SDS011;5042;42.626;23.382;2024-03-23T03:26:03;5.10;;;4.30;;
10005;SDS011;5042;42.626;23.382;2024-03-23T03:28:29;5.83;;;4.50;;
10005;SDS011;5042;42.626;23.382;2024-03-23T03:30:56;5.00;;;4.40;;
10005;SDS011;5042;42.626;23.382;2024-03-23T03:33:23;4.70;;;4.30;;
10005;SDS011;5042;42.626;23.382;2024-03-23T03:35:50;4.87;;;4.33;;
10005;SDS011;5042;42.626;23.382;2024-03-23T03:38:17;5.67;;;4.43;;
10005;SDS011;5042;42.626;23.382;2024-03-23T03:40:44;5.90;;;4.53;;
10005;SDS011;5042;42.626;23.382;2024-03-23T03:43:10;6.30;;;4.80;;
10005;SDS011;5042;42.626;23.382;2024-03-23T03:45:37;5.80;;;4.93;;
10005;SDS011;5042;42.626;23.382;2024-03-23T03:48:03;5.50;;;4.67;;
10005;SDS011;5042;42.626;23.382;2024-03-23T03:50:32;6.57;;;4.73;;
10005;SDS011;5042;42.626;23.382;2024-03-23T03:52:58;5.37;;;4.63;;
10005;SDS011;5042;42.626;23.382;2024-03-23T03:55:25;6.33;;;5.00;;
10005;SDS011;5042;42.626;23.382;2024-03-23T03:57:51;6.03;;;4.93;;
10005;SDS011;5042;42.626;23.382;2024-03-23T04:00:18;6.20;;;5.20;;
10005;SDS011;5042;42.626;23.382;2024-03-23T04:02:43;6.67;;;5.20;;
10005;SDS011;5042;42.626;23.382;2024-03-23T04:05:10;6.60;;;5.20;;
10005;SDS011;5042;42.626;23.382;2024-03-23T04:07:38;6.43;;;5.40;;
10005;SDS011;5042;42.626;23.382;2024-03-23T04:10:05;6.13;;;5.10;;
10005;SDS011;5042;42.626;23.382;2024-03-23T04:12:33;7.40;;;5.00;;
10005;SDS011;5042;42.626;23.382;2024-03-23T04:15:00;6.07;;;4.67;;
10005;SDS011;5042;42.626;23.382;2024-03-23T04:17:28;5.90;;;4.80;;
10005;SDS011;5042;42.626;23.382;2024-03-23T04:19:57;8.03;;;4.83;;
10005;SDS011;5042;42.626;23.382;2024-03-23T04:22:23;6.73;;;5.10;;
10005;SDS011;5042;42.626;23.382;2024-03-23T04:24:52;9.73;;;5.60;;
10005;SDS011;5042;42.626;23.382;2024-03-23T04:27:18;6.37;;;5.43;;
10005;SDS011;5042;42.626;23.382;2024-03-23T04:29:46;7.53;;;5.50;;
10005;SDS011;5042;42.626;23.382;2024-03-23T04:32:13;7.00;;;5.47;;
10005;SDS011;5042;42.626;23.382;2024-03-23T04:34:40;5.80;;;4.97;;
10005;SDS011;5042;42.626;23.382;2024-03-23T04:37:06;7.33;;;5.40;;
10005;SDS011;5042;42.626;23.382;2024-03-23T04:39:33;8.90;;;5.47;;
10005;SDS011;5042;42.626;23.382;2024-03-23T04:42:02;7.30;;;6.13;;
10005;SDS011;5042;42.626;23.382;2024-03-23T04:44:29;7.03;;;6.13;;
10005;SDS011;5042;42.626;23.382;2024-03-23T04:46:56;7.30;;;5.90;;
10005;SDS011;5042;42.626;23.382;2024-03-23T04:49:24;8.83;;;5.80;;
10005;SDS011;5042;42.626;23.382;2024-03-23T04:51:50;7.90;;;6.33;;
10005;SDS011;5042;42.626;23.382;2024-03-23T04:54:17;7.80;;;6.27;;
10005;SDS011;5042;42.626;23.382;2024-03-23T04:56:43;8.37;;;6.10;;
10005;SDS011;5042;42.626;23.382;2024-03-23T04:59:12;8.07;;;5.90;;
10005;SDS011;5042;42.626;23.382;2024-03-23T05:01:37;8.00;;;6.13;;
10005;SDS011;5042;42.626;23.382;2024-03-23T05:04:07;7.10;;;6.30;;
10005;SDS011;5042;42.626;23.382;2024-03-23T05:06:33;11.03;;;6.87;;
10005;SDS011;5042;42.626;23.382;2024-03-23T05:09:00;9.30;;;6.40;;
10005;SDS011;5042;42.626;23.382;2024-03-23T05:11:28;8.93;;;6.57;;
10005;SDS011;5042;42.626;23.382;2024-03-23T05:13:55;8.50;;;6.33;;
10005;SDS011;5042;42.626;23.382;2024-03-23T05:16:23;8.77;;;6.70;;
10005;SDS011;5042;42.626;23.382;2024-03-23T05:18:50;8.97;;;7.20;;
10005;SDS011;5042;42.626;23.382;2024-03-23T05:21:15;9.40;;;6.43;;
10005;SDS011;5042;42.626;23.382;2024-03-23T05:23:42;9.43;;;6.73;;
10005;SDS011;5042;42.626;23.382;2024-03-23T05:26:08;10.17;;;6.77;;
10005;SDS011;5042;42.626;23.382;2024-03-23T05:28:35;10.47;;;7.23;;
10005;SDS011;5042;42.626;23.382;2024-03-23T05:31:01;10.57;;;7.00;;
10005;SDS011;5042;42.626;23.382;2024-03-23T05:33:30;9.57;;;6.70;;
10005;SDS011;5042;42.626;23.382;2024-03-23T05:35:56;13.10;;;6.93;;
10005;SDS011;5042;42.626;23.382;2024-03-23T05:38:24;9.07;;;6.80;;
10005;SDS011;5042;42.626;23.382;2024-03-23T05:40:53;8.47;;;6.00;;
10005;SDS011;5042;42.626;23.382;2024-03-23T05:43:20;10.47;;;6.93;;
10005;SDS011;5042;42.626;23.382;2024-03-23T05:45:52;9.23;;;6.73;;
10005;SDS011;5042;42.626;23.382;2024-03-23T05:48:19;9.50;;;7.17;;
10005;SDS011;5042;42.626;23.382;2024-03-23T05:50:47;8.80;;;7.07;;
10005;SDS011;5042;42.626;23.382;2024-03-23T05:53:14;10.67;;;8.00;;
10005;SDS011;5042;42.626;23.382;2024-03-23T05:55:40;10.37;;;6.73;;
10005;SDS011;5042;42.626;23.382;2024-03-23T05:58:07;10.13;;;7.50;;
10005;SDS011;5042;42.626;23.382;2024-03-23T06:00:33;10.53;;;7.37;;
10005;SDS011;5042;42.626;23.382;2024-03-23T06:03:00;8.83;;;6.90;;
10005;SDS011;5042;42.626;23.382;2024-03-23T06:05:27;10.00;;;7.13;;
10005;SDS011;5042;42.626;23.382;2024-03-23T06:07:56;11.93;;;7.10;;
10005;SDS011;5042;42.626;23.382;2024-03-23T06:10:22;10.90;;;6.90;;
10005;SDS011;5042;42.626;23.382;2024-03-23T06:12:49;8.33;;;6.73;;
10005;SDS011;5042;42.626;23.382;2024-03-23T06:15:17;8.03;;;7.20;;
10005;SDS011;5042;42.626;23.382;2024-03-23T06:17:44;7.50;;;6.37;;
10005;SDS011;5042;42.626;23.382;2024-03-23T06:20:10;6.73;;;5.43;;
10005;SDS011;5042;42.626;23.382;2024-03-23T06:22:36;8.07;;;6.60;;
10005;SDS011;5042;42.626;23.382;2024-03-23T06:25:04;10.70;;;6.83;;
10005;SDS011;5042;42.626;23.382;2024-03-23T06:27:31;8.77;;;6.67;;
10005;SDS011;5042;42.626;23.382;2024-03-23T06:29:58;7.63;;;6.47;;
10005;SDS011;5042;42.626;23.382;2024-03-23T06:32:25;8.30;;;6.63;;
10005;SDS011;5042;42.626;23.382;2024-03-23T06:34:51;9.93;;;6.77;;
10005;SDS011;5042;42.626;23.382;2024-03-23T06:37:18;9.50;;;6.67;;
10005;SDS011;5042;42.626;23.382;2024-03-23T06:39:45;7.67;;;6.80;;
10005;SDS011;5042;42.626;23.382;2024-03-23T06:42:14;8.90;;;7.20;;
10005;SDS011;5042;42.626;23.382;2024-03-23T06:44:40;10.30;;;7.03;;
10005;SDS011;5042;42.626;23.382;2024-03-23T06:47:07;9.67;;;7.70;;
10005;SDS011;5042;42.626;23.382;2024-03-23T06:49:33;10.00;;;8.30;;
10005;SDS011;5042;42.626;23.382;2024-03-23T06:52:00;11.77;;;8.80;;
10005;SDS011;5042;42.626;23.382;2024-03-23T06:54:26;12.20;;;9.47;;
10005;SDS011;5042;42.626;23.382;2024-03-23T06:56:53;12.60;;;8.83;;
10005;SDS011;5042;42.626;23.382;2024-03-23T06:59:20;10.87;;;8.67;;
10005;SDS011;5042;42.626;23.382;2024-03-23T07:01:47;9.50;;;8.43;;
10005;SDS011;5042;42.626;23.382;2024-03-23T07:04:13;9.67;;;8.33;;
10005;SDS011;5042;42.626;23.382;2024-03-23T07:06:42;12.07;;;8.20;;
10005;SDS011;5042;42.626;23.382;2024-03-23T07:09:08;11.77;;;8.50;;
10005;SDS011;5042;42.626;23.382;2024-03-23T07:11:35;13.63;;;8.70;;
10005;SDS011;5042;42.626;23.382;2024-03-23T07:14:01;9.60;;;8.57;;
10005;SDS011;5042;42.626;23.382;2024-03-23T07:16:30;11.83;;;8.17;;
10005;SDS011;5042;42.626;23.382;2024-03-23T07:18:56;9.67;;;8.03;;
10005;SDS011;5042;42.626;23.382;2024-03-23T07:21:23;12.90;;;8.27;;
10005;SDS011;5042;42.626;23.382;2024-03-23T07:23:49;9.90;;;7.70;;
10005;SDS011;5042;42.626;23.382;2024-03-23T07:26:16;9.77;;;7.90;;
10005;SDS011;5042;42.626;23.382;2024-03-23T07:28:44;8.53;;;7.63;;
10005;SDS011;5042;42.626;23.382;2024-03-23T07:31:11;9.05;;;7.82;;
10005;SDS011;5042;42.626;23.382;2024-03-23T07:33:42;8.93;;;7.83;;
10005;SDS011;5042;42.626;23.382;2024-03-23T07:36:10;7.88;;;7.03;;
10005;SDS011;5042;42.626;23.382;2024-03-23T07:38:36;10.13;;;7.72;;
10005;SDS011;5042;42.626;23.382;2024-03-23T07:41:04;10.90;;;8.50;;
10005;SDS011;5042;42.626;23.382;2024-03-23T07:43:30;11.50;;;7.97;;
10005;SDS011;5042;42.626;23.382;2024-03-23T07:45:57;9.77;;;7.53;;
10005;SDS011;5042;42.626;23.382;2024-03-23T07:48:24;8.90;;;7.93;;
10005;SDS011;5042;42.626;23.382;2024-03-23T07:50:59;13.18;;;8.25;;
10005;SDS011;5042;42.626;23.382;2024-03-23T07:53:26;8.77;;;7.88;;
10005;SDS011;5042;42.626;23.382;2024-03-23T07:55:57;11.10;;;8.10;;
10005;SDS011;5042;42.626;23.382;2024-03-23T07:58:23;9.68;;;7.80;;
10005;SDS011;5042;42.626;23.382;2024-03-23T08:00:50;10.98;;;7.93;;
10005;SDS011;5042;42.626;23.382;2024-03-23T08:03:16;10.77;;;8.48;;
10005;SDS011;5042;42.626;23.382;2024-03-23T08:05:43;10.52;;;8.30;;
10005;SDS011;5042;42.626;23.382;2024-03-23T08:08:10;10.60;;;8.23;;
10005;SDS011;5042;42.626;23.382;2024-03-23T08:10:38;11.00;;;8.05;;
10005;SDS011;5042;42.626;23.382;2024-03-23T08:13:12;12.07;;;8.97;;
10005;SDS011;5042;42.626;23.382;2024-03-23T08:15:39;11.67;;;8.80;;
10005;SDS011;5042;42.626;23.382;2024-03-23T08:18:05;10.50;;;8.57;;
10005;SDS011;5042;42.626;23.382;2024-03-23T08:20:32;10.83;;;8.77;;
10005;SDS011;5042;42.626;23.382;2024-03-23T08:22:58;9.75;;;8.48;;
10005;SDS011;5042;42.626;23.382;2024-03-23T08:25:27;10.80;;;8.43;;
10005;SDS011;5042;42.626;23.382;2024-03-23T08:28:11;13.35;;;8.57;;
10005;SDS011;5042;42.626;23.382;2024-03-23T08:30:38;12.55;;;8.27;;
10005;SDS011;5042;42.626;23.382;2024-03-23T08:33:04;12.37;;;8.90;;
10005;SDS011;5042;42.626;23.382;2024-03-23T08:35:31;9.27;;;8.10;;
10005;SDS011;5042;42.626;23.382;2024-03-23T08:37:57;12.35;;;8.48;;
10005;SDS011;5042;42.626;23.382;2024-03-23T08:40:24;13.07;;;9.48;;
10005;SDS011;5042;42.626;23.382;2024-03-23T08:42:51;11.23;;;8.60;;
10005;SDS011;5042;42.626;23.382;2024-03-23T08:45:18;11.90;;;8.55;;
10005;SDS011;5042;42.626;23.382;2024-03-23T08:47:44;13.70;;;8.70;;
10005;SDS011;5042;42.626;23.382;2024-03-23T08:50:10;12.52;;;8.40;;
10005;SDS011;5042;42.626;23.382;2024-03-23T08:52:36;9.98;;;7.65;;
10005;SDS011;5042;42.626;23.382;2024-03-23T08:55:03;9.52;;;7.90;;
10005;SDS011;5042;42.626;23.382;2024-03-23T08:57:30;10.02;;;7.60;;
10005;SDS011;5042;42.626;23.382;2024-03-23T08:59:58;10.82;;;8.73;;
10005;SDS011;5042;42.626;23.382;2024-03-23T09:02:24;12.25;;;8.68;;
10005;SDS011;5042;42.626;23.382;2024-03-23T09:04:51;11.55;;;8.43;;
10005;SDS011;5042;42.626;23.382;2024-03-23T09:07:17;10.45;;;8.38;;
10005;SDS011;5042;42.626;23.382;2024-03-23T09:09:43;12.10;;;8.63;;
10005;SDS011;5042;42.626;23.382;2024-03-23T09:12:09;10.55;;;8.73;;
10005;SDS011;5042;42.626;23.382;2024-03-23T09:14:36;14.27;;;8.55;;
10005;SDS011;5042;42.626;23.382;2024-03-23T09:17:04;11.65;;;8.48;;
10005;SDS011;5042;42.626;23.382;2024-03-23T09:19:30;10.80;;;8.52;;
10005;SDS011;5042;42.626;23.382;2024-03-23T09:21:56;11.38;;;8.18;;
10005;SDS011;5042;42.626;23.382;2024-03-23T09:24:23;12.43;;;8.68;;
10005;SDS011;5042;42.626;23.382;2024-03-23T09:26:51;10.05;;;7.70;;
10005;SDS011;5042;42.626;23.382;2024-03-23T09:29:18;11.90;;;8.65;;
10005;SDS011;5042;42.626;23.382;2024-03-23T09:31:44;10.55;;;8.27;;
10005;SDS011;5042;42.626;23.382;2024-03-23T09:34:12;9.10;;;7.65;;
10005;SDS011;5042;42.626;23.382;2024-03-23T09:36:38;8.45;;;7.53;;
10005;SDS011;5042;42.626;23.382;2024-03-23T09:39:06;10.85;;;7.45;;
10005;SDS011;5042;42.626;23.382;2024-03-23T09:41:34;10.23;;;8.00;;
10005;SDS011;5042;42.626;23.382;2024-03-23T09:44:01;11.57;;;7.90;;
10005;SDS011;5042;42.626;23.382;2024-03-23T09:46:27;10.98;;;7.72;;
10005;SDS011;5042;42.626;23.382;2024-03-23T09:48:54;10.20;;;7.63;;
10005;SDS011;5042;42.626;23.382;2024-03-23T09:51:22;10.43;;;8.15;;
10005;SDS011;5042;42.626;23.382;2024-03-23T09:53:49;9.55;;;8.05;;
10005;SDS011;5042;42.626;23.382;2024-03-23T09:56:17;9.18;;;7.97;;
10005;SDS011;5042;42.626;23.382;2024-03-23T09:58:44;9.43;;;7.60;;
10005;SDS011;5042;42.626;23.382;2024-03-23T10:01:10;10.70;;;7.95;;
10005;SDS011;5042;42.626;23.382;2024-03-23T10:03:43;10.80;;;7.80;;
10005;SDS011;5042;42.626;23.382;2024-03-23T10:06:10;10.13;;;8.30;;
10005;SDS011;5042;42.626;23.382;2024-03-23T10:08:38;9.68;;;7.82;;
10005;SDS011;5042;42.626;23.382;2024-03-23T10:13:50;8.80;;;7.15;;
10005;SDS011;5042;42.626;23.382;2024-03-23T10:16:23;10.07;;;7.00;;
10005;SDS011;5042;42.626;23.382;2024-03-23T10:18:52;10.18;;;7.30;;
10005;SDS011;5042;42.626;23.382;2024-03-23T10:21:18;10.73;;;7.47;;
10005;SDS011;5042;42.626;23.382;2024-03-23T10:23:46;9.55;;;7.18;;
10005;SDS011;5042;42.626;23.382;2024-03-23T10:26:13;11.23;;;6.88;;
10005;SDS011;5042;42.626;23.382;2024-03-23T10:28:56;8.05;;;6.47;;
10005;SDS011;5042;42.626;23.382;2024-03-23T10:31:25;8.02;;;7.15;;
10005;SDS011;5042;42.626;23.382;2024-03-23T10:33:52;10.65;;;7.47;;
10005;SDS011;5042;42.626;23.382;2024-03-23T10:36:20;12.80;;;6.85;;
10005;SDS011;5042;42.626;23.382;2024-03-23T10:38:49;7.90;;;7.10;;
10005;SDS011;5042;42.626;23.382;2024-03-23T10:41:16;7.72;;;6.07;;
10005;SDS011;5042;42.626;23.382;2024-03-23T10:43:45;7.80;;;6.95;;
10005;SDS011;5042;42.626;23.382;2024-03-23T10:46:11;10.05;;;7.57;;
10005;SDS011;5042;42.626;23.382;2024-03-23T10:48:39;7.68;;;6.85;;
10005;SDS011;5042;42.626;23.382;2024-03-23T10:51:06;9.85;;;6.90;;
10005;SDS011;5042;42.626;23.382;2024-03-23T10:53:34;8.98;;;6.70;;
10005;SDS011;5042;42.626;23.382;2024-03-23T10:56:04;8.68;;;6.55;;
10005;SDS011;5042;42.626;23.382;2024-03-23T10:58:31;7.68;;;6.88;;
10005;SDS011;5042;42.626;23.382;2024-03-23T11:01:02;7.85;;;6.57;;
10005;SDS011;5042;42.626;23.382;2024-03-23T11:03:30;7.82;;;6.53;;
10005;SDS011;5042;42.626;23.382;2024-03-23T11:05:56;11.98;;;7.10;;
10005;SDS011;5042;42.626;23.382;2024-03-23T11:08:30;10.60;;;6.18;;
10005;SDS011;5042;42.626;23.382;2024-03-23T11:13:51;9.45;;;6.20;;
10005;SDS011;5042;42.626;23.382;2024-03-23T11:16:21;7.55;;;6.70;;
10005;SDS011;5042;42.626;23.382;2024-03-23T11:18:48;9.50;;;6.85;;
10005;SDS011;5042;42.626;23.382;2024-03-23T11:24:18;8.70;;;6.80;;
10005;SDS011;5042;42.626;23.382;2024-03-23T11:26:46;9.13;;;7.13;;
10005;SDS011;5042;42.626;23.382;2024-03-23T11:29:14;10.63;;;7.10;;
10005;SDS011;5042;42.626;23.382;2024-03-23T11:31:45;7.90;;;6.57;;
10005;SDS011;5042;42.626;23.382;2024-03-23T11:34:12;10.75;;;6.72;;
10005;SDS011;5042;42.626;23.382;2024-03-23T11:36:39;8.75;;;6.72;;
10005;SDS011;5042;42.626;23.382;2024-03-23T11:39:12;7.47;;;6.53;;
10005;SDS011;5042;42.626;23.382;2024-03-23T11:41:47;7.70;;;6.43;;
10005;SDS011;5042;42.626;23.382;2024-03-23T11:44:15;8.35;;;6.70;;
10005;SDS011;5042;42.626;23.382;2024-03-23T11:46:43;9.98;;;7.40;;
10005;SDS011;5042;42.626;23.382;2024-03-23T11:49:19;10.35;;;6.57;;
10005;SDS011;5042;42.626;23.382;2024-03-23T11:51:49;8.32;;;6.57;;
10005;SDS011;5042;42.626;23.382;2024-03-23T11:54:16;7.15;;;6.40;;
10005;SDS011;5042;42.626;23.382;2024-03-23T11:56:56;9.60;;;6.78;;
10005;SDS011;5042;42.626;23.382;2024-03-23T11:59:33;11.73;;;9.10;;
10005;SDS011;5042;42.626;23.382;2024-03-23T12:02:05;8.27;;;6.68;;
10005;SDS011;5042;42.626;23.382;2024-03-23T12:04:31;9.45;;;6.80;;
10005;SDS011;5042;42.626;23.382;2024-03-23T12:07:09;7.50;;;6.40;;
10005;SDS011;5042;42.626;23.382;2024-03-23T12:09:35;7.85;;;7.05;;
10005;SDS011;5042;42.626;23.382;2024-03-23T12:12:05;8.52;;;6.50;;
10005;SDS011;5042;42.626;23.382;2024-03-23T12:14:34;7.55;;;6.70;;
10005;SDS011;5042;42.626;23.382;2024-03-23T12:17:08;8.75;;;6.68;;
10005;SDS011;5042;42.626;23.382;2024-03-23T12:19:35;7.70;;;6.85;;
10005;SDS011;5042;42.626;23.382;2024-03-23T12:22:02;8.65;;;6.82;;
10005;SDS011;5042;42.626;23.382;2024-03-23T12:24:29;7.68;;;6.68;;
10005;SDS011;5042;42.626;23.382;2024-03-23T12:26:59;9.85;;;6.80;;
10005;SDS011;5042;42.626;23.382;2024-03-23T12:29:26;8.77;;;6.78;;
10005;SDS011;5042;42.626;23.382;2024-03-23T12:31:56;10.73;;;6.47;;
10005;SDS011;5042;42.626;23.382;2024-03-23T12:34:24;7.63;;;6.88;;
10005;SDS011;5042;42.626;23.382;2024-03-23T12:36:51;11.43;;;7.03;;
10005;SDS011;5042;42.626;23.382;2024-03-23T12:39:17;7.25;;;6.15;;
10005;SDS011;5042;42.626;23.382;2024-03-23T12:41:44;7.47;;;6.20;;
10005;SDS011;5042;42.626;23.382;2024-03-23T12:44:11;7.30;;;6.20;;
10005;SDS011;5042;42.626;23.382;2024-03-23T12:46:38;7.00;;;6.22;;
10005;SDS011;5042;42.626;23.382;2024-03-23T12:49:06;8.35;;;6.97;;
10005;SDS011;5042;42.626;23.382;2024-03-23T12:51:33;8.63;;;7.50;;
10005;SDS011;5042;42.626;23.382;2024-03-23T12:53:59;9.05;;;6.68;;
10005;SDS011;5042;42.626;23.382;2024-03-23T12:56:26;7.35;;;6.63;;
10005;SDS011;5042;42.626;23.382;2024-03-23T12:58:53;7.13;;;6.43;;
10005;SDS011;5042;42.626;23.382;2024-03-23T13:01:22;8.02;;;6.60;;
10005;SDS011;5042;42.626;23.382;2024-03-23T13:03:48;4.80;;;4.22;;
10005;SDS011;5042;42.626;23.382;2024-03-23T13:06:17;7.75;;;5.38;;
10005;SDS011;5042;42.626;23.382;2024-03-23T13:08:43;7.15;;;5.88;;
10005;SDS011;5042;42.626;23.382;2024-03-23T13:11:11;5.80;;;5.20;;
10005;SDS011;5042;42.626;23.382;2024-03-23T13:13:36;6.03;;;5.32;;
10005;SDS011;5042;42.626;23.382;2024-03-23T13:16:04;7.15;;;5.18;;
10005;SDS011;5042;42.626;23.382;2024-03-23T13:18:31;7.03;;;5.13;;
10005;SDS011;5042;42.626;23.382;2024-03-23T13:20:58;8.93;;;5.25;;
10005;SDS011;5042;42.626;23.382;2024-03-23T13:23:25;5.88;;;4.50;;
10005;SDS011;5042;42.626;23.382;2024-03-23T13:25:53;5.93;;;4.57;;
10005;SDS011;5042;42.626;23.382;2024-03-23T13:28:20;4.78;;;4.38;;
10005;SDS011;5042;42.626;23.382;2024-03-23T13:30:51;5.80;;;4.45;;
10005;SDS011;5042;42.626;23.382;2024-03-23T13:33:17;5.35;;;4.40;;
10005;SDS011;5042;42.626;23.382;2024-03-23T13:35:50;5.78;;;4.53;;
10005;SDS011;5042;42.626;23.382;2024-03-23T13:38:17;4.78;;;4.35;;
10005;SDS011;5042;42.626;23.382;2024-03-23T13:40:52;6.65;;;4.20;;
10005;SDS011;5042;42.626;23.382;2024-03-23T13:43:19;7.47;;;4.25;;
10005;SDS011;5042;42.626;23.382;2024-03-23T13:45:46;4.50;;;2.60;;
10005;SDS011;5042;42.626;23.382;2024-03-23T13:48:13;3.00;;;2.67;;
10005;SDS011;5042;42.626;23.382;2024-03-23T13:50:40;2.67;;;2.47;;
10005;SDS011;5042;42.626;23.382;2024-03-23T13:53:06;3.60;;;2.30;;
10005;SDS011;5042;42.626;23.382;2024-03-23T13:55:34;2.17;;;2.03;;
10005;SDS011;5042;42.626;23.382;2024-03-23T13:58:02;2.50;;;2.30;;
10005;SDS011;5042;42.626;23.382;2024-03-23T14:00:29;5.50;;;2.83;;
10005;SDS011;5042;42.626;23.382;2024-03-23T14:02:57;2.63;;;2.42;;
10005;SDS011;5042;42.626;23.382;2024-03-23T14:05:24;2.60;;;2.40;;
10005;SDS011;5042;42.626;23.382;2024-03-23T14:07:50;2.42;;;2.22;;
10005;SDS011;5042;42.626;23.382;2024-03-23T14:10:17;3.97;;;2.30;;
10005;SDS011;5042;42.626;23.382;2024-03-23T14:12:43;4.22;;;2.85;;
10005;SDS011;5042;42.626;23.382;2024-03-23T14:15:11;2.63;;;2.33;;
10005;SDS011;5042;42.626;23.382;2024-03-23T14:17:38;5.28;;;2.33;;
10005;SDS011;5042;42.626;23.382;2024-03-23T14:20:06;3.22;;;2.20;;
10005;SDS011;5042;42.626;23.382;2024-03-23T14:22:36;2.30;;;2.10;;
10005;SDS011;5042;42.626;23.382;2024-03-23T14:25:03;1.90;;;1.80;;
10005;SDS011;5042;42.626;23.382;2024-03-23T14:27:30;1.73;;;1.58;;
10005;SDS011;5042;42.626;23.382;2024-03-23T14:29:57;2.08;;;1.60;;
10005;SDS011;5042;42.626;23.382;2024-03-23T14:32:24;1.50;;;1.40;;
10005;SDS011;5042;42.626;23.382;2024-03-23T14:34:51;1.73;;;1.38;;
10005;SDS011;5042;42.626;23.382;2024-03-23T14:37:19;2.72;;;1.60;;
10005;SDS011;5042;42.626;23.382;2024-03-23T14:39:46;2.30;;;1.90;;
10005;SDS011;5042;42.626;23.382;2024-03-23T14:42:12;2.15;;;1.95;;
10005;SDS011;5042;42.626;23.382;2024-03-23T14:44:38;2.25;;;1.80;;
10005;SDS011;5042;42.626;23.382;2024-03-23T14:47:05;2.35;;;1.70;;
10005;SDS011;5042;42.626;23.382;2024-03-23T14:49:33;5.03;;;2.00;;
10005;SDS011;5042;42.626;23.382;2024-03-23T14:51:59;2.00;;;1.80;;
10005;SDS011;5042;42.626;23.382;2024-03-23T14:54:26;2.60;;;1.60;;
10005;SDS011;5042;42.626;23.382;2024-03-23T14:56:52;3.80;;;1.98;;
10005;SDS011;5042;42.626;23.382;2024-03-23T14:59:19;2.08;;;1.48;;
10005;SDS011;5042;42.626;23.382;2024-03-23T15:01:45;1.60;;;1.50;;
10005;SDS011;5042;42.626;23.382;2024-03-23T15:04:12;3.22;;;1.50;;
10005;SDS011;5042;42.626;23.382;2024-03-23T15:06:40;1.77;;;1.67;;
10005;SDS011;5042;42.626;23.382;2024-03-23T15:09:07;1.52;;;1.42;;
10005;SDS011;5042;42.626;23.382;2024-03-23T15:11:36;2.90;;;1.55;;
10005;SDS011;5042;42.626;23.382;2024-03-23T15:14:03;1.80;;;1.48;;
10005;SDS011;5042;42.626;23.382;2024-03-23T15:16:29;1.60;;;1.50;;
10005;SDS011;5042;42.626;23.382;2024-03-23T15:18:56;2.65;;;1.75;;
10005;SDS011;5042;42.626;23.382;2024-03-23T15:21:21;1.58;;;1.38;;
10005;SDS011;5042;42.626;23.382;2024-03-23T15:23:50;2.72;;;1.50;;
10005;SDS011;5042;42.626;23.382;2024-03-23T15:26:16;1.75;;;1.30;;
10005;SDS011;5042;42.626;23.382;2024-03-23T15:28:43;1.73;;;1.23;;
10005;SDS011;5042;42.626;23.382;2024-03-23T15:31:29;1.50;;;1.40;;
10005;SDS011;5042;42.626;23.382;2024-03-23T15:33:56;1.52;;;1.42;;
10005;SDS011;5042;42.626;23.382;2024-03-23T15:36:22;1.77;;;1.67;;
10005;SDS011;5042;42.626;23.382;2024-03-23T15:38:50;1.80;;;1.70;;
10005;SDS011;5042;42.626;23.382;2024-03-23T15:41:16;2.08;;;1.90;;
10005;SDS011;5042;42.626;23.382;2024-03-23T15:43:43;2.95;;;1.60;;
10005;SDS011;5042;42.626;23.382;2024-03-23T15:46:08;3.17;;;2.10;;